Time;durP1;ratioP1;P1;durP2;ratioP2;P2;SDS_P1;SDS_P2;PMS_P1;PMS_P2;Temp;Humidity;BMP_temperature;BMP_pressure;BME280_temperature;BME280_humidity;BME280_pressure;Samples;Min_cycle;Max_cycle;Signal;HPM_P1;HPM_P2
2023/10/04 00:02:19;;;;;;;2.20;2.10;;;13.60;99.90;;;;;;5069269;27;20043;-87
2023/10/04 00:04:45;;;;;;;2.30;2.20;;;13.70;99.90;;;;;;5081410;28;20046;-89
2023/10/04 00:07:11;;;;;;;2.40;2.30;;;13.60;99.90;;;;;;5067522;28;20044;-89
2023/10/04 00:09:37;;;;;;;2.35;2.25;;;13.60;99.90;;;;;;5085872;27;20047;-88
2023/10/04 00:12:03;;;;;;;2.30;2.20;;;13.60;99.90;;;;;;5082867;28;20153;-89
2023/10/04 00:14:30;;;;;;;2.38;2.28;;;13.60;99.90;;;;;;5082608;28;20035;-87
2023/10/04 00:16:56;;;;;;;2.42;2.33;;;13.80;99.90;;;;;;5084421;28;20118;-87
2023/10/04 00:19:22;;;;;;;2.40;2.30;;;13.70;99.90;;;;;;5086209;28;20177;-92
2023/10/04 00:21:48;;;;;;;2.10;2.00;;;13.60;99.90;;;;;;5084039;27;20044;-89
2023/10/04 00:24:13;;;;;;;2.10;2.00;;;13.70;99.90;;;;;;5083024;27;20078;-88
2023/10/04 00:26:43;;;;;;;2.15;2.05;;;13.80;99.90;;;;;;5081485;28;20042;-87
2023/10/04 00:29:09;;;;;;;2.10;2.00;;;13.50;99.90;;;;;;5081179;28;20051;-86
2023/10/04 00:31:36;;;;;;;2.10;2.00;;;13.40;99.90;;;;;;5080148;28;20055;-87
2023/10/04 00:34:03;;;;;;;2.30;2.20;;;13.40;99.90;;;;;;5082619;28;20055;-88
2023/10/04 00:36:29;;;;;;;2.30;2.20;;;13.60;99.90;;;;;;5085375;27;20051;-88
2023/10/04 00:38:55;;;;;;;2.40;2.30;;;13.50;99.90;;;;;;5099163;28;20047;-85
2023/10/04 00:41:22;;;;;;;2.22;2.13;;;13.40;99.90;;;;;;5097516;27;20047;-90
2023/10/04 00:43:51;;;;;;;2.67;2.58;;;13.40;99.90;;;;;;5085929;28;20044;-85
2023/10/04 00:46:20;;;;;;;2.20;2.10;;;13.40;99.90;;;;;;5094759;27;20516;-86
2023/10/04 00:48:47;;;;;;;2.30;2.20;;;13.20;99.90;;;;;;5092932;27;20102;-87
2023/10/04 00:51:15;;;;;;;2.30;2.20;;;13.50;99.90;;;;;;5077428;28;20464;-88
2023/10/04 00:53:40;;;;;;;2.22;2.13;;;13.40;99.90;;;;;;5102311;27;20476;-86
2023/10/04 00:56:08;;;;;;;2.28;2.17;;;13.40;99.90;;;;;;5099918;27;20100;-88
2023/10/04 00:58:36;;;;;;;2.47;2.38;;;13.40;99.90;;;;;;5097482;27;20492;-89
2023/10/04 01:01:04;;;;;;;2.22;2.13;;;13.40;99.90;;;;;;5074940;27;20046;-86
2023/10/04 01:03:30;;;;;;;2.20;2.10;;;13.20;99.90;;;;;;5098356;27;20071;-87
2023/10/04 01:05:57;;;;;;;2.47;2.38;;;13.20;99.90;;;;;;5096273;27;20522;-84
2023/10/04 01:08:24;;;;;;;2.30;2.20;;;13.10;99.90;;;;;;5101022;27;20052;-86
2023/10/04 01:10:51;;;;;;;2.63;2.53;;;13.10;99.90;;;;;;5092219;27;20529;-87
2023/10/04 01:13:19;;;;;;;2.58;2.47;;;13.20;99.90;;;;;;5099092;27;20078;-86
2023/10/04 01:15:45;;;;;;;2.45;2.35;;;13.30;99.90;;;;;;5102087;27;20126;-85
2023/10/04 01:18:12;;;;;;;2.40;2.30;;;13.30;99.90;;;;;;5101303;27;20611;-85
2023/10/04 01:20:39;;;;;;;2.47;2.38;;;13.20;99.90;;;;;;5096681;27;20094;-86
2023/10/04 01:23:12;;;;;;;2.80;2.60;;;13.00;99.90;;;;;;5098223;27;20086;-86
2023/10/04 01:25:42;;;;;;;2.90;2.70;;;13.10;99.90;;;;;;5094414;27;20048;-87
2023/10/04 01:28:17;;;;;;;2.50;2.40;;;13.20;99.90;;;;;;5096646;27;20050;-85
2023/10/04 01:30:47;;;;;;;2.75;2.58;;;13.20;99.90;;;;;;5094261;27;20059;-84
2023/10/04 01:33:18;;;;;;;2.60;2.50;;;13.10;99.90;;;;;;5097329;27;20576;-84
2023/10/04 01:35:50;;;;;;;2.65;2.53;;;13.20;99.90;;;;;;5097763;27;20420;-85
2023/10/04 01:38:17;;;;;;;2.78;2.60;;;13.20;99.90;;;;;;5103983;27;20055;-86
2023/10/04 01:40:47;;;;;;;3.05;2.85;;;13.30;99.90;;;;;;5086713;28;20659;-87
2023/10/04 01:43:16;;;;;;;2.83;2.63;;;13.30;99.90;;;;;;5106642;27;20405;-84
2023/10/04 01:45:50;;;;;;;2.80;2.60;;;13.10;99.90;;;;;;5097789;27;20074;-86
2023/10/04 01:48:20;;;;;;;2.67;2.55;;;13.00;99.90;;;;;;5101001;27;20044;-86
2023/10/04 01:50:51;;;;;;;2.95;2.75;;;13.30;99.90;;;;;;5106703;27;20126;-85
2023/10/04 01:53:25;;;;;;;2.60;2.50;;;13.30;99.90;;;;;;5102760;27;20496;-85
2023/10/04 01:55:51;;;;;;;2.90;2.70;;;13.20;99.90;;;;;;5088585;27;20047;-85
2023/10/04 01:58:23;;;;;;;2.58;2.47;;;13.10;99.90;;;;;;5105598;27;20494;-87
2023/10/04 02:00:50;;;;;;;2.50;2.40;;;13.20;99.90;;;;;;5094548;27;20051;-89
2023/10/04 02:03:16;;;;;;;2.63;2.53;;;13.20;99.90;;;;;;5104607;27;20507;-85
2023/10/04 02:05:42;;;;;;;2.75;2.60;;;13.10;99.90;;;;;;5105339;27;20039;-86
2023/10/04 02:08:09;;;;;;;2.85;2.65;;;13.20;99.90;;;;;;5078472;28;20043;-86
2023/10/04 02:10:41;;;;;;;2.60;2.50;;;13.10;99.90;;;;;;5107479;27;20047;-86
2023/10/04 02:13:08;;;;;;;2.50;2.40;;;13.10;99.90;;;;;;5061418;27;20456;-87
2023/10/04 02:15:34;;;;;;;2.75;2.58;;;13.10;99.90;;;;;;5082668;28;20042;-86
2023/10/04 02:18:01;;;;;;;2.88;2.67;;;13.00;99.90;;;;;;5084221;28;20044;-85
2023/10/04 02:20:28;;;;;;;2.67;2.53;;;12.80;99.90;;;;;;5084002;28;20068;-86
2023/10/04 02:22:54;;;;;;;2.50;2.40;;;12.90;99.90;;;;;;5084135;28;20109;-89
2023/10/04 02:25:24;;;;;;;2.75;2.58;;;12.80;99.90;;;;;;5064279;28;20048;-84
2023/10/04 02:27:55;;;;;;;2.78;2.60;;;12.70;99.90;;;;;;5084438;28;20050;-88
2023/10/04 02:30:30;;;;;;;2.70;2.55;;;12.90;99.90;;;;;;5069897;28;20062;-91
2023/10/04 02:32:57;;;;;;;2.55;2.45;;;12.70;99.90;;;;;;5071049;28;20039;-89
2023/10/04 02:35:26;;;;;;;2.78;2.60;;;13.00;99.90;;;;;;5069901;28;20039;-89
2023/10/04 02:37:59;;;;;;;2.70;2.55;;;12.80;99.90;;;;;;5085337;28;20124;-90
2023/10/04 02:40:32;;;;;;;2.67;2.53;;;12.70;99.90;;;;;;5087110;28;20723;-86
2023/10/04 02:42:58;;;;;;;2.87;2.67;;;12.80;99.90;;;;;;5084320;28;20064;-91
2023/10/04 02:45:24;;;;;;;2.58;2.47;;;12.70;99.90;;;;;;5089368;28;20059;-88
2023/10/04 02:47:52;;;;;;;2.63;2.53;;;12.60;99.90;;;;;;5065984;28;20113;-89
2023/10/04 02:50:19;;;;;;;2.70;2.55;;;12.60;99.90;;;;;;5065521;28;20107;-86
2023/10/04 02:52:45;;;;;;;2.70;2.55;;;12.60;99.90;;;;;;5082668;28;20043;-84
2023/10/04 02:55:15;;;;;;;2.78;2.60;;;12.60;99.90;;;;;;5086886;27;20151;-86
2023/10/04 02:57:52;;;;;;;2.85;2.65;;;12.80;99.90;;;;;;5083522;28;20050;-88
2023/10/04 03:00:19;;;;;;;2.75;2.60;;;12.60;99.90;;;;;;5084067;28;20126;-87
2023/10/04 03:02:50;;;;;;;2.67;2.55;;;12.60;99.90;;;;;;5083056;28;20043;-87
2023/10/04 03:05:20;;;;;;;2.47;2.38;;;12.40;99.90;;;;;;5081039;28;20130;-86
2023/10/04 03:07:47;;;;;;;2.58;2.47;;;12.50;99.90;;;;;;5084297;28;20036;-86
2023/10/04 03:10:23;;;;;;;2.65;2.55;;;12.50;99.90;;;;;;5067227;28;20090;-85
2023/10/04 03:12:56;;;;;;;2.60;2.50;;;12.60;99.90;;;;;;5081125;28;20075;-86
2023/10/04 03:15:23;;;;;;;3.00;2.80;;;12.70;99.90;;;;;;5065919;28;20493;-84
2023/10/04 03:17:53;;;;;;;2.58;2.47;;;12.70;99.90;;;;;;5083278;28;20039;-85
2023/10/04 03:20:23;;;;;;;2.55;2.45;;;12.50;99.90;;;;;;5078211;28;20051;-86
2023/10/04 03:22:50;;;;;;;2.45;2.35;;;12.50;99.90;;;;;;5086292;28;20058;-87
2023/10/04 03:25:17;;;;;;;2.55;2.45;;;12.60;99.90;;;;;;5084996;28;20478;-85
2023/10/04 03:27:44;;;;;;;2.47;2.38;;;12.70;99.90;;;;;;5085502;28;20051;-86
2023/10/04 03:30:14;;;;;;;2.47;2.38;;;12.70;99.90;;;;;;5086843;28;20459;-86
2023/10/04 03:32:41;;;;;;;2.40;2.30;;;12.50;99.90;;;;;;5087720;28;20075;-86
2023/10/04 03:35:08;;;;;;;2.47;2.38;;;12.50;99.90;;;;;;5087893;28;20435;-86
2023/10/04 03:37:39;;;;;;;2.45;2.35;;;12.40;99.90;;;;;;5086223;28;20545;-86
2023/10/04 03:40:13;;;;;;;2.40;2.30;;;12.40;99.90;;;;;;5087033;28;20047;-85
2023/10/04 03:42:39;;;;;;;2.38;2.28;;;12.50;99.90;;;;;;5082071;28;20040;-86
2023/10/04 03:45:06;;;;;;;2.40;2.30;;;12.40;99.90;;;;;;5083139;28;20047;-86
2023/10/04 03:47:33;;;;;;;2.42;2.33;;;12.50;99.90;;;;;;5067881;28;20051;-85
2023/10/04 03:49:58;;;;;;;2.40;2.30;;;12.40;99.90;;;;;;5087899;28;20047;-90
2023/10/04 03:52:25;;;;;;;2.50;2.40;;;12.40;99.90;;;;;;5093892;28;20739;-89
2023/10/04 03:54:51;;;;;;;2.35;2.25;;;12.50;99.90;;;;;;5112188;27;20043;-86
2023/10/04 03:57:16;;;;;;;2.58;2.47;;;12.30;99.90;;;;;;5102156;27;20655;-88
2023/10/04 03:59:44;;;;;;;2.70;2.58;;;12.30;99.90;;;;;;5092244;27;20527;-86
2023/10/04 04:02:11;;;;;;;2.65;2.53;;;12.50;99.90;;;;;;5101798;27;20062;-86
2023/10/04 04:04:36;;;;;;;2.70;2.55;;;12.50;99.90;;;;;;5105940;27;20090;-85
2023/10/04 04:07:02;;;;;;;2.63;2.53;;;12.40;99.90;;;;;;5104524;27;20064;-88
2023/10/04 04:09:28;;;;;;;2.78;2.60;;;12.50;99.90;;;;;;5103147;27;20043;-88
2023/10/04 04:11:54;;;;;;;2.63;2.53;;;12.60;99.90;;;;;;5097812;27;20079;-88
2023/10/04 04:14:20;;;;;;;2.67;2.58;;;12.40;99.90;;;;;;5088206;27;20063;-87
2023/10/04 04:16:46;;;;;;;2.60;2.50;;;12.40;99.90;;;;;;5086946;28;20066;-87
2023/10/04 04:19:14;;;;;;;2.72;2.58;;;12.60;99.90;;;;;;5104259;27;20150;-87
2023/10/04 04:21:40;;;;;;;2.65;2.50;;;12.30;99.90;;;;;;5115649;27;20043;-91
2023/10/04 04:24:07;;;;;;;2.55;2.45;;;12.50;99.90;;;;;;5083916;28;20105;-87
2023/10/04 04:26:33;;;;;;;2.75;2.60;;;12.40;99.90;;;;;;5096805;27;20096;-89
2023/10/04 04:28:59;;;;;;;2.70;2.55;;;12.60;99.90;;;;;;5090920;27;20031;-87
2023/10/04 04:31:25;;;;;;;2.58;2.47;;;12.40;99.90;;;;;;5084038;28;20404;-87
2023/10/04 04:33:53;;;;;;;2.90;2.70;;;12.60;99.90;;;;;;5085214;28;20449;-86
2023/10/04 04:36:25;;;;;;;2.72;2.58;;;12.50;99.90;;;;;;5101058;27;20075;-86
2023/10/04 04:38:53;;;;;;;2.70;2.55;;;12.50;99.90;;;;;;5081600;28;20138;-86
2023/10/04 04:41:25;;;;;;;2.70;2.58;;;12.60;99.90;;;;;;5100260;27;20130;-86
2023/10/04 04:43:51;;;;;;;2.45;2.35;;;12.60;99.90;;;;;;5100201;27;20258;-87
2023/10/04 04:46:18;;;;;;;2.72;2.58;;;12.80;99.90;;;;;;5099640;27;20035;-87
2023/10/04 04:48:48;;;;;;;2.88;2.67;;;12.80;99.90;;;;;;5104306;27;20043;-86
2023/10/04 04:51:18;;;;;;;2.80;2.60;;;12.80;99.90;;;;;;5113702;27;20047;-86
2023/10/04 04:53:50;;;;;;;2.75;2.58;;;12.70;99.90;;;;;;5098692;27;20126;-90
2023/10/04 04:56:15;;;;;;;2.80;2.60;;;12.50;99.90;;;;;;5093783;27;20082;-87
2023/10/04 04:58:49;;;;;;;2.70;2.55;;;12.70;99.90;;;;;;5103589;27;20108;-87
2023/10/04 05:01:15;;;;;;;2.90;2.70;;;12.50;99.90;;;;;;5104929;27;20133;-87
2023/10/04 05:03:44;;;;;;;2.83;2.65;;;12.60;99.90;;;;;;5109679;27;20576;-85
2023/10/04 05:06:13;;;;;;;2.80;2.63;;;12.60;99.90;;;;;;5105436;27;20074;-87
2023/10/04 05:08:42;;;;;;;2.97;2.78;;;12.70;99.90;;;;;;5108936;27;20050;-87
2023/10/04 05:11:09;;;;;;;2.58;2.47;;;12.90;99.90;;;;;;5095724;27;20062;-85
2023/10/04 05:13:36;;;;;;;2.88;2.67;;;12.80;99.90;;;;;;5080026;27;20123;-85
2023/10/04 05:16:02;;;;;;;2.95;2.75;;;13.00;99.90;;;;;;5102915;27;20043;-85
2023/10/04 05:18:27;;;;;;;2.70;2.55;;;13.00;99.90;;;;;;5102244;27;20082;-84
2023/10/04 05:20:54;;;;;;;2.58;2.47;;;12.70;99.90;;;;;;5104253;27;20071;-85
2023/10/04 05:23:24;;;;;;;2.63;2.53;;;12.60;99.90;;;;;;5078891;28;20048;-86
2023/10/04 05:25:52;;;;;;;2.47;2.38;;;12.70;99.90;;;;;;5104172;27;20046;-85
2023/10/04 05:28:18;;;;;;;2.70;2.55;;;12.70;99.90;;;;;;5106087;27;20046;-85
2023/10/04 05:30:46;;;;;;;2.55;2.45;;;12.50;99.90;;;;;;5105966;27;20067;-86
2023/10/04 05:33:13;;;;;;;2.58;2.47;;;12.50;99.90;;;;;;5102720;27;20518;-89
2023/10/04 05:35:40;;;;;;;2.47;2.38;;;12.50;99.90;;;;;;5107191;27;20049;-86
2023/10/04 05:38:07;;;;;;;2.70;2.55;;;12.70;99.90;;;;;;5096648;27;20055;-84
2023/10/04 05:40:38;;;;;;;2.38;2.28;;;12.60;99.90;;;;;;5095790;27;20116;-85
2023/10/04 05:43:05;;;;;;;2.63;2.53;;;12.50;99.90;;;;;;5092586;27;20045;-84
2023/10/04 05:45:31;;;;;;;2.63;2.50;;;12.40;99.90;;;;;;5101995;27;20090;-85
2023/10/04 05:47:59;;;;;;;2.55;2.45;;;12.60;99.90;;;;;;5069590;28;20043;-85
2023/10/04 05:50:25;;;;;;;2.70;2.55;;;12.40;99.90;;;;;;5084994;28;20075;-85
2023/10/04 05:52:53;;;;;;;2.65;2.53;;;12.50;99.90;;;;;;5083451;28;20120;-86
2023/10/04 05:55:20;;;;;;;2.58;2.47;;;12.60;99.90;;;;;;5103643;28;20102;-86
2023/10/04 05:57:47;;;;;;;2.55;2.45;;;12.50;99.90;;;;;;5086202;28;20042;-87
2023/10/04 06:02:49;;;;;;;2.50;2.40;;;12.40;99.90;;;;;;5086889;28;20043;-85
2023/10/04 06:05:16;;;;;;;2.85;2.65;;;12.60;99.90;;;;;;5083629;28;20534;-86
2023/10/04 06:07:43;;;;;;;2.55;2.45;;;12.50;99.90;;;;;;5059415;27;20075;-82
2023/10/04 06:10:13;;;;;;;2.58;2.47;;;12.50;99.90;;;;;;5080216;28;20625;-85
2023/10/04 06:12:39;;;;;;;2.90;2.70;;;12.80;99.90;;;;;;5083051;28;20122;-84
2023/10/04 06:15:10;;;;;;;2.55;2.45;;;12.80;99.90;;;;;;5080475;27;20176;-86
2023/10/04 06:17:42;;;;;;;2.67;2.55;;;12.90;99.90;;;;;;5082401;28;20051;-87
2023/10/04 06:20:36;;;;;;;2.72;2.58;;;12.90;99.90;;;;;;5082173;28;20100;-86
2023/10/04 06:23:06;;;;;;;3.08;2.88;;;12.80;99.90;;;;;;5070386;28;20584;-86
2023/10/04 06:25:38;;;;;;;2.85;2.67;;;13.10;99.90;;;;;;5080903;28;20048;-88
2023/10/04 06:28:04;;;;;;;2.78;2.60;;;13.20;99.90;;;;;;5083846;28;20075;-89
2023/10/04 06:30:32;;;;;;;2.65;2.53;;;13.10;99.90;;;;;;5063536;28;20098;-87
2023/10/04 06:33:01;;;;;;;2.55;2.45;;;13.20;99.90;;;;;;5079940;28;20083;-89
2023/10/04 06:35:28;;;;;;;2.53;2.42;;;13.40;99.90;;;;;;5084524;28;20050;-86
2023/10/04 06:37:55;;;;;;;2.55;2.45;;;13.20;99.90;;;;;;5085627;28;20514;-87
2023/10/04 06:40:22;;;;;;;2.63;2.50;;;13.20;99.90;;;;;;5077286;28;20039;-87
2023/10/04 06:42:52;;;;;;;2.50;2.40;;;13.30;99.90;;;;;;5063671;28;20047;-88
2023/10/04 06:45:20;;;;;;;2.55;2.45;;;13.40;99.90;;;;;;5079575;28;20039;-86
2023/10/04 06:47:48;;;;;;;2.60;2.50;;;13.30;99.90;;;;;;5080271;28;20394;-85
2023/10/04 06:50:15;;;;;;;2.53;2.42;;;13.50;99.90;;;;;;5081298;28;20048;-87
2023/10/04 06:52:42;;;;;;;2.92;2.72;;;13.50;99.90;;;;;;5083800;28;20074;-86
2023/10/04 06:55:11;;;;;;;2.83;2.65;;;13.70;99.90;;;;;;5084329;28;20073;-86
2023/10/04 06:57:41;;;;;;;3.08;2.88;;;13.70;99.90;;;;;;5076948;28;20723;-91
2023/10/04 07:00:14;;;;;;;3.00;2.80;;;13.80;99.90;;;;;;5064570;28;20560;-86
2023/10/04 07:02:45;;;;;;;3.03;2.83;;;13.90;99.90;;;;;;5091037;28;20093;-93
2023/10/04 07:05:19;;;;;;;2.90;2.70;;;13.70;99.90;;;;;;5071912;28;20055;-95
2023/10/04 07:07:46;;;;;;;;;;;13.70;99.90;;;;;;5066676;28;20134;-85
2023/10/04 07:10:14;;;;;;;3.10;2.90;;;13.90;99.90;;;;;;5063537;28;19923;-93
2023/10/04 07:12:43;;;;;;;2.92;2.72;;;14.10;99.90;;;;;;5067596;28;20055;-89
2023/10/04 07:15:10;;;;;;;2.70;2.55;;;14.30;99.90;;;;;;5082158;28;20047;-85
2023/10/04 07:17:38;;;;;;;2.47;2.38;;;14.30;99.90;;;;;;5082465;28;20654;-87
2023/10/04 07:20:07;;;;;;;2.20;2.10;;;14.60;99.90;;;;;;5066777;28;20040;-86
2023/10/04 07:22:36;;;;;;;2.22;2.13;;;14.60;99.90;;;;;;5056615;28;20040;-86
2023/10/04 07:25:02;;;;;;;1.80;1.70;;;14.50;99.90;;;;;;5081929;28;20431;-87
2023/10/04 07:27:31;;;;;;;1.58;1.48;;;14.40;99.90;;;;;;5067462;28;20043;-88
2023/10/04 07:29:58;;;;;;;1.60;1.50;;;14.60;99.90;;;;;;5070814;28;20404;-87
2023/10/04 07:32:23;;;;;;;2.03;1.92;;;14.90;99.90;;;;;;5085629;28;20505;-89
2023/10/04 07:34:49;;;;;;;2.03;1.92;;;14.90;99.90;;;;;;5087121;28;20074;-85
2023/10/04 07:37:15;;;;;;;1.45;1.40;;;14.70;99.90;;;;;;5084761;28;20127;-84
2023/10/04 07:39:41;;;;;;;1.85;1.75;;;14.80;99.90;;;;;;5084510;28;20044;-90
2023/10/04 07:42:06;;;;;;;1.95;1.85;;;14.50;99.90;;;;;;5069786;28;20082;-87
2023/10/04 07:44:32;;;;;;;1.88;1.77;;;14.50;99.90;;;;;;5067791;28;20108;-88
2023/10/04 07:47:01;;;;;;;1.77;1.67;;;14.80;99.90;;;;;;5087100;28;20130;-89
2023/10/04 07:49:31;;;;;;;1.83;1.73;;;14.90;99.90;;;;;;5095993;28;20039;-88
2023/10/04 07:51:57;;;;;;;1.58;1.48;;;15.00;99.90;;;;;;5114853;28;20091;-86
2023/10/04 07:54:24;;;;;;;1.70;1.60;;;15.30;99.90;;;;;;5116027;28;20481;-87
2023/10/04 07:56:49;;;;;;;1.38;1.35;;;15.30;99.90;;;;;;5092851;28;20039;-90
2023/10/04 07:59:18;;;;;;;1.45;1.38;;;15.40;99.90;;;;;;5082168;28;20048;-88
2023/10/04 08:01:45;;;;;;;1.55;1.45;;;15.50;99.90;;;;;;5106079;28;20256;-86
2023/10/04 08:04:14;;;;;;;1.33;1.33;;;15.50;99.90;;;;;;5084071;28;20485;-87
2023/10/04 08:06:39;;;;;;;1.35;1.33;;;15.80;99.90;;;;;;5080592;28;20480;-87
2023/10/04 08:09:05;;;;;;;1.23;1.23;;;15.80;99.90;;;;;;5100016;27;20040;-89
2023/10/04 08:11:34;;;;;;;1.23;1.23;;;15.90;99.90;;;;;;5103553;27;20039;-84
2023/10/04 08:14:01;;;;;;;1.30;1.30;;;16.00;99.90;;;;;;5119395;27;20034;-87
2023/10/04 08:16:40;;;;;;;;;;;;;;;;;;;;;
2023/10/04 08:19:09;;;;;;;1.25;1.25;;;16.10;99.90;;;;;;5118192;27;20057;-85
2023/10/04 08:21:36;;;;;;;1.30;1.30;;;16.20;99.90;;;;;;5113432;27;20043;-83
2023/10/04 08:24:03;;;;;;;1.30;1.30;;;16.30;99.90;;;;;;5103856;27;20458;-87
2023/10/04 08:26:28;;;;;;;1.20;1.20;;;16.50;99.90;;;;;;5110450;27;20035;-89
2023/10/04 08:28:54;;;;;;;1.40;1.35;;;16.60;99.90;;;;;;5098243;27;20043;-86
2023/10/04 08:31:20;;;;;;;1.35;1.33;;;16.50;99.90;;;;;;5081213;28;20035;-88
2023/10/04 08:33:45;;;;;;;1.23;1.23;;;16.50;99.90;;;;;;5110559;27;20061;-85
2023/10/04 08:36:21;;;;;;;1.17;1.17;;;16.70;99.90;;;;;;5112513;27;20035;-90
2023/10/04 08:38:47;;;;;;;1.48;1.40;;;16.80;99.90;;;;;;5113312;27;20043;-91
2023/10/04 08:41:16;;;;;;;1.25;1.25;;;16.90;99.90;;;;;;5122107;27;20071;-87
2023/10/04 08:43:43;;;;;;;1.50;1.40;;;16.90;99.90;;;;;;5088516;28;20126;-90
2023/10/04 08:46:25;;;;;;;1.23;1.23;;;17.00;99.90;;;;;;5116572;27;20059;-87
2023/10/04 08:49:07;;;;;;;1.30;1.30;;;17.00;99.90;;;;;;5094494;27;20116;-87
2023/10/04 08:51:57;;;;;;;1.13;1.13;;;17.20;99.90;;;;;;5091065;27;20146;-88
2023/10/04 08:54:28;;;;;;;1.25;1.25;;;17.20;99.90;;;;;;5097171;28;20035;-91
2023/10/04 08:57:13;;;;;;;1.58;1.50;;;17.20;99.90;;;;;;5095920;28;20093;-91
2023/10/04 08:59:44;;;;;;;1.60;1.50;;;17.30;99.90;;;;;;5099381;27;20564;-90
2023/10/04 09:02:13;;;;;;;1.65;1.55;;;17.20;99.90;;;;;;5117043;27;20046;-90
2023/10/04 09:04:40;;;;;;;1.48;1.40;;;17.30;99.90;;;;;;5106041;27;20051;-87
2023/10/04 09:07:12;;;;;;;1.67;1.58;;;17.30;99.90;;;;;;5109321;27;20066;-88
2023/10/04 09:09:41;;;;;;;1.67;1.58;;;17.20;99.90;;;;;;5107162;27;20047;-95
2023/10/04 09:12:11;;;;;;;1.55;1.45;;;17.30;99.90;;;;;;5102836;28;20043;-93
2023/10/04 09:14:46;;;;;;;1.35;1.33;;;17.40;99.90;;;;;;5091834;28;20496;-95
2023/10/04 09:17:17;;;;;;;1.20;1.20;;;17.50;99.90;;;;;;5078158;28;20392;-89
2023/10/04 09:19:45;;;;;;;1.38;1.35;;;17.50;99.90;;;;;;5089952;28;20047;-86
2023/10/04 09:22:11;;;;;;;1.60;1.50;;;17.70;99.90;;;;;;5088788;28;20043;-93
2023/10/04 09:24:54;;;;;;;1.63;1.52;;;17.70;99.90;;;;;;5084465;28;20814;-95
2023/10/04 09:27:21;;;;;;;1.23;1.23;;;17.80;99.90;;;;;;5089831;28;20051;-92
2023/10/04 09:29:53;;;;;;;1.48;1.40;;;17.80;99.90;;;;;;5075278;28;20674;-96
2023/10/04 09:32:39;;;;;;;1.42;1.38;;;17.80;99.90;;;;;;5080663;28;20515;-91
2023/10/04 09:35:05;;;;;;;1.42;1.38;;;17.90;99.90;;;;;;5088197;28;20531;-86
2023/10/04 09:37:31;;;;;;;1.40;1.35;;;18.00;99.90;;;;;;5091554;28;20099;-88
2023/10/04 09:40:12;;;;;;;1.70;1.60;;;18.10;99.90;;;;;;5094491;28;20131;-94
2023/10/04 09:42:56;;;;;;;1.63;1.52;;;18.10;99.90;;;;;;5112443;27;20737;-90
2023/10/04 09:45:34;;;;;;;1.80;1.70;;;18.10;99.90;;;;;;5101450;27;20050;-94
2023/10/04 09:48:03;;;;;;;1.67;1.58;;;18.20;99.90;;;;;;5095497;28;20662;-89
2023/10/04 09:50:29;;;;;;;1.55;1.45;;;18.30;99.90;;;;;;5101416;27;20630;-90
2023/10/04 09:53:04;;;;;;;1.52;1.42;;;18.20;99.90;;;;;;5108010;27;20050;-94
2023/10/04 09:55:34;;;;;;;1.30;1.30;;;18.20;99.90;;;;;;5088673;27;20047;-88
2023/10/04 09:58:02;;;;;;;1.65;1.55;;;18.30;99.90;;;;;;5100722;27;20856;-90
2023/10/04 10:00:56;;;;;;;1.50;1.40;;;18.30;99.90;;;;;;5084573;28;20043;-93
2023/10/04 10:03:28;;;;;;;1.42;1.38;;;18.30;99.90;;;;;;5088531;28;20115;-89
2023/10/04 10:06:00;;;;;;;1.63;1.52;;;18.40;99.90;;;;;;5097725;28;20040;-90
2023/10/04 10:08:31;;;;;;;1.30;1.30;;;18.40;99.90;;;;;;5094302;27;20045;-88
2023/10/04 10:11:00;;;;;;;2.17;1.27;;;18.60;99.90;;;;;;5105609;27;20512;-95
2023/10/04 10:13:36;;;;;;;1.17;1.17;;;18.60;99.90;;;;;;5102426;27;20043;-91
2023/10/04 10:16:03;;;;;;;1.10;1.10;;;18.40;99.90;;;;;;5110281;27;20057;-84
2023/10/04 10:18:31;;;;;;;1.10;1.10;;;18.40;99.90;;;;;;5118587;27;20043;-96
2023/10/04 10:20:59;;;;;;;1.00;1.00;;;18.30;99.90;;;;;;5111098;27;20040;-91
2023/10/04 10:23:25;;;;;;;1.00;1.00;;;18.30;99.90;;;;;;5090177;28;20044;-92
2023/10/04 10:26:20;;;;;;;1.02;1.02;;;18.50;99.90;;;;;;5105853;27;20039;-89
2023/10/04 10:28:47;;;;;;;1.00;1.00;;;18.40;99.90;;;;;;5095601;27;20035;-94
2023/10/04 10:31:22;;;;;;;1.02;1.02;;;18.30;99.90;;;;;;5112057;27;20054;-95
2023/10/04 10:33:49;;;;;;;1.10;1.10;;;18.20;99.90;;;;;;5077556;27;20047;-87
2023/10/04 10:36:21;;;;;;;1.02;1.02;;;18.20;99.90;;;;;;5107989;27;20043;-95
2023/10/04 10:38:49;;;;;;;1.00;1.00;;;18.20;99.90;;;;;;5096766;27;20128;-85
2023/10/04 10:41:30;;;;;;;1.00;1.00;;;18.20;99.90;;;;;;5107398;27;20051;-87
2023/10/04 10:44:14;;;;;;;0.93;0.93;;;18.30;99.90;;;;;;5100242;27;20040;-89
2023/10/04 10:46:58;;;;;;;1.00;1.00;;;18.20;99.90;;;;;;5099350;27;20046;-87
2023/10/04 10:50:20;;;;;;;1.00;1.00;;;18.40;99.90;;;;;;5114288;27;20051;-96
2023/10/04 10:52:46;;;;;;;1.00;1.00;;;18.60;99.90;;;;;;4999371;28;20121;-89
2023/10/04 10:55:17;;;;;;;1.00;1.00;;;18.50;99.90;;;;;;5112262;27;20127;-93
2023/10/04 10:57:45;;;;;;;1.00;1.00;;;18.50;99.90;;;;;;5092045;27;20092;-89
2023/10/04 11:00:22;;;;;;;1.00;1.00;;;18.60;99.90;;;;;;5119293;27;20646;-88
2023/10/04 11:03:04;;;;;;;1.00;1.00;;;18.70;99.90;;;;;;5117346;27;20046;-94
2023/10/04 11:05:32;;;;;;;0.95;0.95;;;18.70;99.90;;;;;;5093142;28;20456;-92
2023/10/04 11:08:06;;;;;;;1.00;1.00;;;18.60;99.90;;;;;;5096549;28;20066;-91
2023/10/04 11:10:36;;;;;;;;;;;18.50;99.90;;;;;;5090389;28;20071;-92
2023/10/04 11:13:18;;;;;;;1.23;1.23;;;18.70;99.90;;;;;;5099487;28;19969;-91
2023/10/04 11:15:46;;;;;;;1.35;1.33;;;18.40;99.90;;;;;;5092455;28;20399;-87
2023/10/04 11:18:18;;;;;;;1.05;1.05;;;18.30;99.90;;;;;;5101356;28;20089;-88
2023/10/04 11:20:44;;;;;;;1.00;1.00;;;18.30;99.90;;;;;;5114719;28;20047;-90
2023/10/04 11:23:12;;;;;;;1.00;1.00;;;18.40;99.90;;;;;;5103717;28;20047;-90
2023/10/04 11:25:47;;;;;;;1.00;1.00;;;18.50;99.90;;;;;;5099054;28;20035;-93
2023/10/04 11:28:13;;;;;;;1.10;1.10;;;18.40;99.90;;;;;;5093822;28;20365;-89
2023/10/04 11:30:46;;;;;;;5.47;1.65;;;18.30;99.90;;;;;;5110317;28;20059;-91
2023/10/04 11:33:50;;;;;;;1.08;1.08;;;18.10;99.90;;;;;;5107713;28;20103;-96
2023/10/04 11:36:27;;;;;;;1.48;1.40;;;18.20;99.90;;;;;;5099858;28;20047;-93
2023/10/04 11:38:54;;;;;;;1.23;1.23;;;18.10;99.90;;;;;;5091399;28;20500;-93
2023/10/04 11:41:28;;;;;;;1.23;1.23;;;18.10;99.90;;;;;;5108429;28;20066;-94
2023/10/04 11:44:00;;;;;;;1.20;1.20;;;18.10;99.90;;;;;;5096883;27;20042;-93
2023/10/04 11:46:35;;;;;;;1.15;1.15;;;18.00;99.90;;;;;;5095931;27;20122;-95
2023/10/04 11:49:19;;;;;;;1.30;1.30;;;18.00;99.90;;;;;;5092475;27;20132;-93
2023/10/04 11:51:45;;;;;;;1.50;1.42;;;18.00;99.90;;;;;;5098373;27;20483;-88
2023/10/04 11:54:14;;;;;;;1.30;1.30;;;17.90;99.90;;;;;;5121139;27;20050;-90
2023/10/04 11:56:46;;;;;;;1.23;1.23;;;17.90;99.90;;;;;;5100251;27;20551;-94
2023/10/04 11:59:15;;;;;;;1.50;1.40;;;18.10;99.90;;;;;;5098753;28;20055;-91
2023/10/04 12:01:44;;;;;;;1.52;1.42;;;18.00;99.90;;;;;;5091126;27;20072;-88
2023/10/04 12:04:12;;;;;;;1.30;1.30;;;18.10;99.90;;;;;;5092425;27;20049;-87
2023/10/04 12:06:38;;;;;;;1.60;1.50;;;18.10;99.90;;;;;;5107920;27;20761;-91
2023/10/04 12:09:08;;;;;;;1.50;1.40;;;18.00;99.90;;;;;;5111185;27;20036;-90
2023/10/04 12:11:38;;;;;;;1.67;1.58;;;17.90;99.90;;;;;;5092956;27;20061;-94
2023/10/04 12:14:09;;;;;;;1.70;1.60;;;17.70;99.90;;;;;;5113354;27;20558;-88
2023/10/04 12:16:38;;;;;;;1.67;1.58;;;17.70;99.90;;;;;;5107787;27;20140;-87
2023/10/04 12:19:04;;;;;;;1.58;1.48;;;17.60;99.90;;;;;;5098356;28;20043;-90
2023/10/04 12:21:31;;;;;;;1.60;1.50;;;17.60;99.90;;;;;;5118577;27;20066;-89
2023/10/04 12:23:57;;;;;;;1.60;1.50;;;17.60;99.90;;;;;;5096605;27;20035;-88
2023/10/04 12:26:23;;;;;;;1.65;1.55;;;17.70;99.90;;;;;;5112551;27;20046;-92
2023/10/04 12:28:52;;;;;;;1.75;1.65;;;17.90;99.90;;;;;;5082288;28;20048;-91
2023/10/04 12:31:20;;;;;;;1.88;1.77;;;17.90;99.90;;;;;;5118497;27;20047;-90
2023/10/04 12:33:46;;;;;;;1.98;1.88;;;18.20;99.90;;;;;;5117165;27;20044;-89
2023/10/04 12:36:12;;;;;;;1.85;1.75;;;18.40;99.90;;;;;;5112085;27;20104;-89
2023/10/04 12:38:37;;;;;;;1.80;1.70;;;18.50;99.90;;;;;;5111687;27;20045;-90
2023/10/04 12:41:03;;;;;;;1.70;1.60;;;18.40;99.90;;;;;;5090852;28;20047;-89
2023/10/04 12:43:29;;;;;;;1.65;1.55;;;18.40;99.90;;;;;;5095995;28;20044;-91
2023/10/04 12:45:55;;;;;;;1.70;1.60;;;18.40;99.90;;;;;;5092647;27;20039;-91
2023/10/04 12:48:21;;;;;;;1.70;1.60;;;18.40;99.90;;;;;;5114710;27;20044;-88
2023/10/04 12:50:51;;;;;;;1.75;1.65;;;18.50;99.90;;;;;;5113702;27;20090;-91
2023/10/04 12:53:20;;;;;;;1.60;1.50;;;18.70;99.90;;;;;;5093514;27;20054;-94
2023/10/04 12:55:56;;;;;;;1.65;1.55;;;18.40;99.90;;;;;;5101012;28;20134;-88
2023/10/04 12:58:28;;;;;;;1.63;1.52;;;18.40;99.90;;;;;;5121358;27;20127;-94
2023/10/04 13:00:59;;;;;;;1.65;1.55;;;18.40;99.90;;;;;;5091050;27;20035;-92
2023/10/04 13:03:25;;;;;;;1.80;1.70;;;18.40;99.90;;;;;;5100211;27;20614;-88